sensor_id;sensor_type;location;lat;lon;timestamp;temperature;humidity
19085;DHT22;9675;51.538;6.728;2023-12-04T00:00:04;2.60;99.90
19085;DHT22;9675;51.538;6.728;2023-12-04T00:02:32;2.60;99.90
19085;DHT22;9675;51.538;6.728;2023-12-04T00:05:00;2.70;99.90
19085;DHT22;9675;51.538;6.728;2023-12-04T00:07:27;2.70;99.90
19085;DHT22;9675;51.538;6.728;2023-12-04T00:09:54;2.70;99.90
19085;DHT22;9675;51.538;6.728;2023-12-04T00:12:26;2.70;99.90
19085;DHT22;9675;51.538;6.728;2023-12-04T00:14:57;2.60;99.90
19085;DHT22;9675;51.538;6.728;2023-12-04T00:17:25;2.70;99.90
19085;DHT22;9675;51.538;6.728;2023-12-04T00:19:52;2.60;99.90
19085;DHT22;9675;51.538;6.728;2023-12-04T00:22:19;2.60;99.90
19085;DHT22;9675;51.538;6.728;2023-12-04T00:24:46;2.60;99.90
19085;DHT22;9675;51.538;6.728;2023-12-04T00:27:13;2.60;99.90
19085;DHT22;9675;51.538;6.728;2023-12-04T00:29:40;2.60;99.90
19085;DHT22;9675;51.538;6.728;2023-12-04T00:32:07;2.70;99.90
19085;DHT22;9675;51.538;6.728;2023-12-04T00:34:36;2.60;99.90
19085;DHT22;9675;51.538;6.728;2023-12-04T00:37:03;2.60;99.90
19085;DHT22;9675;51.538;6.728;2023-12-04T00:39:30;2.60;99.90
19085;DHT22;9675;51.538;6.728;2023-12-04T00:41:57;2.60;99.90
19085;DHT22;9675;51.538;6.728;2023-12-04T00:44:24;2.60;99.90
19085;DHT22;9675;51.538;6.728;2023-12-04T00:46:51;2.60;99.90
19085;DHT22;9675;51.538;6.728;2023-12-04T00:49:18;2.50;99.90
19085;DHT22;9675;51.538;6.728;2023-12-04T00:51:47;2.60;99.90
19085;DHT22;9675;51.538;6.728;2023-12-04T05:22:04;2.40;99.90
19085;DHT22;9675;51.538;6.728;2023-12-04T05:24:31;2.50;99.90
19085;DHT22;9675;51.538;6.728;2023-12-04T05:26:58;2.40;99.90
19085;DHT22;9675;51.538;6.728;2023-12-04T05:29:25;2.40;99.90
19085;DHT22;9675;51.538;6.728;2023-12-04T05:31:52;2.50;99.90
19085;DHT22;9675;51.538;6.728;2023-12-04T05:34:19;2.50;99.90
19085;DHT22;9675;51.538;6.728;2023-12-04T05:36:48;2.50;99.90
19085;DHT22;9675;51.538;6.728;2023-12-04T05:39:15;2.50;99.90
19085;DHT22;9675;51.538;6.728;2023-12-04T05:41:42;2.50;99.90
19085;DHT22;9675;51.538;6.728;2023-12-04T05:44:09;2.40;99.90
19085;DHT22;9675;51.538;6.728;2023-12-04T05:46:36;2.50;99.90
19085;DHT22;9675;51.538;6.728;2023-12-04T05:49:03;2.50;99.90
19085;DHT22;9675;51.538;6.728;2023-12-04T05:51:30;2.50;99.90
19085;DHT22;9675;51.538;6.728;2023-12-04T05:53:59;2.50;99.90
19085;DHT22;9675;51.538;6.728;2023-12-04T05:56:26;2.50;99.90
19085;DHT22;9675;51.538;6.728;2023-12-04T05:58:53;2.50;99.90
19085;DHT22;9675;51.538;6.728;2023-12-04T06:01:21;2.50;99.90
19085;DHT22;9675;51.538;6.728;2023-12-04T06:03:48;2.50;99.90
19085;DHT22;9675;51.538;6.728;2023-12-04T06:06:16;2.50;99.90
19085;DHT22;9675;51.538;6.728;2023-12-04T06:08:43;2.50;99.90
19085;DHT22;9675;51.538;6.728;2023-12-04T06:11:11;2.50;99.90
19085;DHT22;9675;51.538;6.728;2023-12-04T06:13:38;2.50;99.90
19085;DHT22;9675;51.538;6.728;2023-12-04T06:16:06;2.50;99.90
19085;DHT22;9675;51.538;6.728;2023-12-04T06:18:34;2.50;99.90
19085;DHT22;9675;51.538;6.728;2023-12-04T06:21:01;2.40;99.90
19085;DHT22;9675;51.538;6.728;2023-12-04T06:23:28;2.50;99.90
19085;DHT22;9675;51.538;6.728;2023-12-04T06:25:56;2.40;99.90
19085;DHT22;9675;51.538;6.728;2023-12-04T06:28:26;2.40;99.90
19085;DHT22;9675;51.538;6.728;2023-12-04T06:30:53;2.40;99.90
19085;DHT22;9675;51.538;6.728;2023-12-04T06:33:21;2.40;99.90
19085;DHT22;9675;51.538;6.728;2023-12-04T06:35:49;2.50;99.90
19085;DHT22;9675;51.538;6.728;2023-12-04T06:38:19;2.50;99.90
19085;DHT22;9675;51.538;6.728;2023-12-04T06:40:51;2.50;99.90
19085;DHT22;9675;51.538;6.728;2023-12-04T06:43:19;2.50;99.90
19085;DHT22;9675;51.538;6.728;2023-12-04T06:45:49;2.40;99.90
19085;DHT22;9675;51.538;6.728;2023-12-04T06:48:17;2.50;99.90
19085;DHT22;9675;51.538;6.728;2023-12-04T06:50:45;2.40;99.90
19085;DHT22;9675;51.538;6.728;2023-12-04T06:53:12;2.50;99.90
19085;DHT22;9675;51.538;6.728;2023-12-04T06:55:39;2.50;99.90
19085;DHT22;9675;51.538;6.728;2023-12-04T06:58:06;2.50;99.90
19085;DHT22;9675;51.538;6.728;2023-12-04T07:00:33;2.50;99.90
19085;DHT22;9675;51.538;6.728;2023-12-04T07:03:02;2.50;99.90
19085;DHT22;9675;51.538;6.728;2023-12-04T07:05:29;2.50;99.90
19085;DHT22;9675;51.538;6.728;2023-12-04T07:07:56;2.50;99.90
19085;DHT22;9675;51.538;6.728;2023-12-04T07:10:23;2.40;99.90
19085;DHT22;9675;51.538;6.728;2023-12-04T07:12:50;2.40;99.90
19085;DHT22;9675;51.538;6.728;2023-12-04T07:15:17;2.40;99.90
19085;DHT22;9675;51.538;6.728;2023-12-04T07:17:44;2.40;99.90
19085;DHT22;9675;51.538;6.728;2023-12-04T07:20:12;2.40;99.90
19085;DHT22;9675;51.538;6.728;2023-12-04T07:22:40;2.40;99.90
19085;DHT22;9675;51.538;6.728;2023-12-04T07:25:07;2.40;99.90
19085;DHT22;9675;51.538;6.728;2023-12-04T07:27:35;2.40;99.90
19085;DHT22;9675;51.538;6.728;2023-12-04T07:30:03;2.40;99.90
19085;DHT22;9675;51.538;6.728;2023-12-04T07:32:30;2.50;99.90
19085;DHT22;9675;51.538;6.728;2023-12-04T07:34:58;2.60;99.90
19085;DHT22;9675;51.538;6.728;2023-12-04T07:37:27;2.60;99.90
19085;DHT22;9675;51.538;6.728;2023-12-04T07:39:55;2.80;99.90
19085;DHT22;9675;51.538;6.728;2023-12-04T07:42:22;2.90;99.90
19085;DHT22;9675;51.538;6.728;2023-12-04T07:44:50;3.00;99.90
19085;DHT22;9675;51.538;6.728;2023-12-04T07:47:17;3.00;99.90
19085;DHT22;9675;51.538;6.728;2023-12-04T07:49:45;3.10;99.90
19085;DHT22;9675;51.538;6.728;2023-12-04T07:52:12;3.20;99.90
19085;DHT22;9675;51.538;6.728;2023-12-04T07:54:40;3.20;99.90
19085;DHT22;9675;51.538;6.728;2023-12-04T07:57:07;3.30;99.90
19085;DHT22;9675;51.538;6.728;2023-12-04T07:59:34;3.30;99.90
19085;DHT22;9675;51.538;6.728;2023-12-04T08:02:01;3.30;99.90
19085;DHT22;9675;51.538;6.728;2023-12-04T08:04:28;3.30;99.90
19085;DHT22;9675;51.538;6.728;2023-12-04T08:06:55;3.40;99.90
19085;DHT22;9675;51.538;6.728;2023-12-04T08:09:22;3.50;99.90
19085;DHT22;9675;51.538;6.728;2023-12-04T08:11:50;3.50;99.90
19085;DHT22;9675;51.538;6.728;2023-12-04T08:14:17;3.50;99.90
19085;DHT22;9675;51.538;6.728;2023-12-04T08:16:45;3.40;99.90
19085;DHT22;9675;51.538;6.728;2023-12-04T08:19:12;3.40;99.90
19085;DHT22;9675;51.538;6.728;2023-12-04T08:21:39;3.40;99.90
19085;DHT22;9675;51.538;6.728;2023-12-04T08:24:06;3.30;99.90
19085;DHT22;9675;51.538;6.728;2023-12-04T08:26:33;3.40;99.90
19085;DHT22;9675;51.538;6.728;2023-12-04T08:29:01;3.30;99.90
19085;DHT22;9675;51.538;6.728;2023-12-04T08:31:28;3.30;99.90
19085;DHT22;9675;51.538;6.728;2023-12-04T08:33:55;3.40;99.90
19085;DHT22;9675;51.538;6.728;2023-12-04T08:36:22;3.30;99.90
19085;DHT22;9675;51.538;6.728;2023-12-04T08:38:49;3.30;99.90
19085;DHT22;9675;51.538;6.728;2023-12-04T08:41:16;3.30;99.90
19085;DHT22;9675;51.538;6.728;2023-12-04T08:43:44;3.30;99.90
19085;DHT22;9675;51.538;6.728;2023-12-04T08:46:13;3.30;99.90
19085;DHT22;9675;51.538;6.728;2023-12-04T08:48:40;3.30;99.90
19085;DHT22;9675;51.538;6.728;2023-12-04T08:51:08;3.40;99.90
19085;DHT22;9675;51.538;6.728;2023-12-04T08:53:41;3.40;99.90
19085;DHT22;9675;51.538;6.728;2023-12-04T08:56:09;3.40;99.90
19085;DHT22;9675;51.538;6.728;2023-12-04T08:58:37;3.40;99.90
19085;DHT22;9675;51.538;6.728;2023-12-04T09:01:04;3.40;99.90
19085;DHT22;9675;51.538;6.728;2023-12-04T09:03:32;3.40;99.90
19085;DHT22;9675;51.538;6.728;2023-12-04T09:06:00;3.50;99.90
19085;DHT22;9675;51.538;6.728;2023-12-04T09:08:27;3.40;99.90
19085;DHT22;9675;51.538;6.728;2023-12-04T09:10:54;3.40;99.90
19085;DHT22;9675;51.538;6.728;2023-12-04T09:13:22;3.50;99.90
19085;DHT22;9675;51.538;6.728;2023-12-04T09:15:49;3.50;99.90
19085;DHT22;9675;51.538;6.728;2023-12-04T09:18:17;3.50;99.90
19085;DHT22;9675;51.538;6.728;2023-12-04T09:20:45;3.50;99.90
19085;DHT22;9675;51.538;6.728;2023-12-04T09:23:12;3.50;99.90
19085;DHT22;9675;51.538;6.728;2023-12-04T09:25:39;3.50;99.90
19085;DHT22;9675;51.538;6.728;2023-12-04T09:28:06;3.50;99.90
19085;DHT22;9675;51.538;6.728;2023-12-04T09:30:35;3.50;99.90
19085;DHT22;9675;51.538;6.728;2023-12-04T09:33:03;3.50;99.90
19085;DHT22;9675;51.538;6.728;2023-12-04T09:35:31;3.60;99.90
19085;DHT22;9675;51.538;6.728;2023-12-04T09:38:00;3.60;99.90
19085;DHT22;9675;51.538;6.728;2023-12-04T09:40:27;3.60;99.90
19085;DHT22;9675;51.538;6.728;2023-12-04T09:42:54;3.60;99.90
19085;DHT22;9675;51.538;6.728;2023-12-04T09:45:23;3.60;99.90
19085;DHT22;9675;51.538;6.728;2023-12-04T09:47:51;3.60;99.90
19085;DHT22;9675;51.538;6.728;2023-12-04T09:50:20;3.60;99.90
19085;DHT22;9675;51.538;6.728;2023-12-04T09:52:49;3.60;99.90
19085;DHT22;9675;51.538;6.728;2023-12-04T09:55:18;3.60;99.90
19085;DHT22;9675;51.538;6.728;2023-12-04T09:57:46;3.60;99.90
19085;DHT22;9675;51.538;6.728;2023-12-04T10:00:15;3.60;99.90
19085;DHT22;9675;51.538;6.728;2023-12-04T10:02:42;3.60;99.90
19085;DHT22;9675;51.538;6.728;2023-12-04T10:05:10;3.60;99.90
19085;DHT22;9675;51.538;6.728;2023-12-04T10:07:37;3.70;99.90
19085;DHT22;9675;51.538;6.728;2023-12-04T10:10:04;3.70;99.90
19085;DHT22;9675;51.538;6.728;2023-12-04T10:12:35;3.60;99.90
19085;DHT22;9675;51.538;6.728;2023-12-04T10:15:04;3.70;99.90
19085;DHT22;9675;51.538;6.728;2023-12-04T10:17:36;3.70;99.90
19085;DHT22;9675;51.538;6.728;2023-12-04T10:20:05;3.70;99.90
19085;DHT22;9675;51.538;6.728;2023-12-04T10:22:39;3.80;99.90
19085;DHT22;9675;51.538;6.728;2023-12-04T10:25:15;3.80;99.90
19085;DHT22;9675;51.538;6.728;2023-12-04T10:27:45;3.70;99.90
19085;DHT22;9675;51.538;6.728;2023-12-04T10:30:23;3.80;99.90
19085;DHT22;9675;51.538;6.728;2023-12-04T10:32:56;3.80;99.90
19085;DHT22;9675;51.538;6.728;2023-12-04T10:35:27;3.80;99.90
19085;DHT22;9675;51.538;6.728;2023-12-04T10:37:56;3.80;99.90
19085;DHT22;9675;51.538;6.728;2023-12-04T10:40:25;3.70;99.90
19085;DHT22;9675;51.538;6.728;2023-12-04T10:43:11;3.80;99.90
19085;DHT22;9675;51.538;6.728;2023-12-04T10:45:42;3.80;99.90
19085;DHT22;9675;51.538;6.728;2023-12-04T10:48:11;3.80;99.90
19085;DHT22;9675;51.538;6.728;2023-12-04T10:50:41;3.80;99.90
19085;DHT22;9675;51.538;6.728;2023-12-04T10:53:10;3.80;99.90
19085;DHT22;9675;51.538;6.728;2023-12-04T10:55:39;3.80;99.90
19085;DHT22;9675;51.538;6.728;2023-12-04T10:58:12;3.80;99.90
19085;DHT22;9675;51.538;6.728;2023-12-04T11:00:42;3.80;99.90
19085;DHT22;9675;51.538;6.728;2023-12-04T11:03:14;3.80;99.90
19085;DHT22;9675;51.538;6.728;2023-12-04T11:05:51;3.80;99.90
19085;DHT22;9675;51.538;6.728;2023-12-04T11:08:23;3.80;99.90
19085;DHT22;9675;51.538;6.728;2023-12-04T11:10:58;3.80;99.90
19085;DHT22;9675;51.538;6.728;2023-12-04T11:13:30;3.80;99.90
19085;DHT22;9675;51.538;6.728;2023-12-04T11:16:02;3.90;99.90
19085;DHT22;9675;51.538;6.728;2023-12-04T11:18:36;3.80;99.90
19085;DHT22;9675;51.538;6.728;2023-12-04T11:21:08;3.80;99.90
19085;DHT22;9675;51.538;6.728;2023-12-04T11:23:37;3.80;99.90
19085;DHT22;9675;51.538;6.728;2023-12-04T11:26:05;3.80;99.90
19085;DHT22;9675;51.538;6.728;2023-12-04T11:28:36;3.80;99.90
19085;DHT22;9675;51.538;6.728;2023-12-04T11:31:05;3.80;99.90
19085;DHT22;9675;51.538;6.728;2023-12-04T11:33:34;3.90;99.90
19085;DHT22;9675;51.538;6.728;2023-12-04T11:36:10;3.80;99.90
19085;DHT22;9675;51.538;6.728;2023-12-04T11:38:40;3.90;99.90
19085;DHT22;9675;51.538;6.728;2023-12-04T11:41:17;3.80;99.90
19085;DHT22;9675;51.538;6.728;2023-12-04T11:43:48;3.80;99.90
19085;DHT22;9675;51.538;6.728;2023-12-04T11:46:19;3.80;99.90
19085;DHT22;9675;51.538;6.728;2023-12-04T11:48:48;3.80;99.90
19085;DHT22;9675;51.538;6.728;2023-12-04T11:51:46;3.90;99.90
19085;DHT22;9675;51.538;6.728;2023-12-04T11:54:17;3.80;99.90
19085;DHT22;9675;51.538;6.728;2023-12-04T11:59:47;3.80;99.90
19085;DHT22;9675;51.538;6.728;2023-12-04T12:02:16;3.90;99.90
19085;DHT22;9675;51.538;6.728;2023-12-04T12:04:43;3.90;99.90
19085;DHT22;9675;51.538;6.728;2023-12-04T12:07:12;3.90;99.90
19085;DHT22;9675;51.538;6.728;2023-12-04T12:09:41;3.90;99.90
19085;DHT22;9675;51.538;6.728;2023-12-04T12:12:08;3.80;99.90
19085;DHT22;9675;51.538;6.728;2023-12-04T12:14:36;3.80;99.90
19085;DHT22;9675;51.538;6.728;2023-12-04T12:17:04;3.80;99.90
19085;DHT22;9675;51.538;6.728;2023-12-04T12:19:31;3.90;99.90
19085;DHT22;9675;51.538;6.728;2023-12-04T12:21:58;3.80;99.90
19085;DHT22;9675;51.538;6.728;2023-12-04T12:24:26;3.90;99.90
19085;DHT22;9675;51.538;6.728;2023-12-04T12:26:55;3.80;99.90
19085;DHT22;9675;51.538;6.728;2023-12-04T12:29:22;3.80;99.90
19085;DHT22;9675;51.538;6.728;2023-12-04T12:31:50;3.80;99.90
19085;DHT22;9675;51.538;6.728;2023-12-04T12:34:17;3.80;99.90
19085;DHT22;9675;51.538;6.728;2023-12-04T12:36:44;3.80;99.90
19085;DHT22;9675;51.538;6.728;2023-12-04T12:39:11;3.80;99.90
19085;DHT22;9675;51.538;6.728;2023-12-04T12:41:39;3.80;99.90
19085;DHT22;9675;51.538;6.728;2023-12-04T12:44:13;3.80;99.90
19085;DHT22;9675;51.538;6.728;2023-12-04T12:46:40;3.80;99.90
19085;DHT22;9675;51.538;6.728;2023-12-04T12:49:08;3.80;99.90
19085;DHT22;9675;51.538;6.728;2023-12-04T12:51:35;3.80;99.90
19085;DHT22;9675;51.538;6.728;2023-12-04T12:54:03;3.80;99.90
19085;DHT22;9675;51.538;6.728;2023-12-04T12:56:30;3.80;99.90
19085;DHT22;9675;51.538;6.728;2023-12-04T12:58:59;3.80;99.90
19085;DHT22;9675;51.538;6.728;2023-12-04T13:01:30;3.80;99.90
19085;DHT22;9675;51.538;6.728;2023-12-04T13:03:58;3.80;99.90
19085;DHT22;9675;51.538;6.728;2023-12-04T13:06:25;3.80;99.90
19085;DHT22;9675;51.538;6.728;2023-12-04T13:08:52;3.80;99.90
19085;DHT22;9675;51.538;6.728;2023-12-04T13:11:19;3.80;99.90
19085;DHT22;9675;51.538;6.728;2023-12-04T13:13:46;3.80;99.90
19085;DHT22;9675;51.538;6.728;2023-12-04T13:16:15;3.80;99.90
19085;DHT22;9675;51.538;6.728;2023-12-04T13:18:42;3.80;99.90
19085;DHT22;9675;51.538;6.728;2023-12-04T13:21:09;3.80;99.90
19085;DHT22;9675;51.538;6.728;2023-12-04T13:23:37;3.90;99.90
19085;DHT22;9675;51.538;6.728;2023-12-04T13:26:04;3.80;99.90
19085;DHT22;9675;51.538;6.728;2023-12-04T13:28:31;3.80;99.90
19085;DHT22;9675;51.538;6.728;2023-12-04T13:30:58;3.80;99.90
19085;DHT22;9675;51.538;6.728;2023-12-04T13:33:27;3.80;99.90
19085;DHT22;9675;51.538;6.728;2023-12-04T13:35:54;3.80;99.90
19085;DHT22;9675;51.538;6.728;2023-12-04T13:38:21;3.90;99.90
19085;DHT22;9675;51.538;6.728;2023-12-04T13:40:48;3.90;99.90
19085;DHT22;9675;51.538;6.728;2023-12-04T13:43:26;3.90;99.90
19085;DHT22;9675;51.538;6.728;2023-12-04T13:46:13;3.90;99.90
19085;DHT22;9675;51.538;6.728;2023-12-04T13:48:41;3.90;99.90
19085;DHT22;9675;51.538;6.728;2023-12-04T13:51:10;3.90;99.90
19085;DHT22;9675;51.538;6.728;2023-12-04T13:53:38;3.90;99.90
19085;DHT22;9675;51.538;6.728;2023-12-04T13:56:10;3.90;99.90
19085;DHT22;9675;51.538;6.728;2023-12-04T13:58:51;3.90;99.90
19085;DHT22;9675;51.538;6.728;2023-12-04T14:01:23;3.90;99.90
19085;DHT22;9675;51.538;6.728;2023-12-04T14:03:53;3.90;99.90
19085;DHT22;9675;51.538;6.728;2023-12-04T14:06:22;3.90;99.90
19085;DHT22;9675;51.538;6.728;2023-12-04T14:08:49;3.90;99.90
19085;DHT22;9675;51.538;6.728;2023-12-04T14:11:16;3.90;99.90
19085;DHT22;9675;51.538;6.728;2023-12-04T14:13:43;3.90;99.90
19085;DHT22;9675;51.538;6.728;2023-12-04T14:16:10;3.90;99.90
19085;DHT22;9675;51.538;6.728;2023-12-04T14:18:37;3.90;99.90
19085;DHT22;9675;51.538;6.728;2023-12-04T14:21:06;3.90;99.90
19085;DHT22;9675;51.538;6.728;2023-12-04T14:23:34;3.90;99.90
19085;DHT22;9675;51.538;6.728;2023-12-04T14:26:01;3.90;99.90
19085;DHT22;9675;51.538;6.728;2023-12-04T14:28:29;3.90;99.90
19085;DHT22;9675;51.538;6.728;2023-12-04T14:30:56;3.90;99.90
19085;DHT22;9675;51.538;6.728;2023-12-04T14:33:23;3.90;99.90
19085;DHT22;9675;51.538;6.728;2023-12-04T14:35:50;3.90;99.90
19085;DHT22;9675;51.538;6.728;2023-12-04T14:38:19;3.90;99.90
19085;DHT22;9675;51.538;6.728;2023-12-04T14:40:48;3.90;99.90
19085;DHT22;9675;51.538;6.728;2023-12-04T14:43:15;3.90;99.90
19085;DHT22;9675;51.538;6.728;2023-12-04T14:45:42;3.90;99.90
19085;DHT22;9675;51.538;6.728;2023-12-04T14:48:10;3.90;99.90
19085;DHT22;9675;51.538;6.728;2023-12-04T14:50:37;3.90;99.90
19085;DHT22;9675;51.538;6.728;2023-12-04T14:53:05;3.90;99.90
19085;DHT22;9675;51.538;6.728;2023-12-04T14:55:43;3.90;99.90
19085;DHT22;9675;51.538;6.728;2023-12-04T14:58:28;3.90;99.90
19085;DHT22;9675;51.538;6.728;2023-12-04T15:01:13;3.90;99.90
19085;DHT22;9675;51.538;6.728;2023-12-04T15:04:14;3.90;99.90
19085;DHT22;9675;51.538;6.728;2023-12-04T15:07:09;3.90;99.90
19085;DHT22;9675;51.538;6.728;2023-12-04T15:10:09;3.90;99.90
19085;DHT22;9675;51.538;6.728;2023-12-04T15:13:02;3.80;99.90
19085;DHT22;9675;51.538;6.728;2023-12-04T15:15:54;3.90;99.90
19085;DHT22;9675;51.538;6.728;2023-12-04T15:18:39;4.10;99.90
19085;DHT22;9675;51.538;6.728;2023-12-04T15:21:25;4.20;99.90
19085;DHT22;9675;51.538;6.728;2023-12-04T15:23:51;4.20;99.90
19085;DHT22;9675;51.538;6.728;2023-12-04T15:26:20;4.40;99.90
19085;DHT22;9675;51.538;6.728;2023-12-04T15:28:46;4.40;99.90
19085;DHT22;9675;51.538;6.728;2023-12-04T15:31:13;4.40;99.90
19085;DHT22;9675;51.538;6.728;2023-12-04T15:33:39;4.50;99.90
19085;DHT22;9675;51.538;6.728;2023-12-04T15:36:06;4.50;99.90
19085;DHT22;9675;51.538;6.728;2023-12-04T15:38:35;4.50;99.90
19085;DHT22;9675;51.538;6.728;2023-12-04T15:41:02;4.60;99.90
19085;DHT22;9675;51.538;6.728;2023-12-04T15:43:31;4.60;99.90
19085;DHT22;9675;51.538;6.728;2023-12-04T15:45:57;4.70;99.90
19085;DHT22;9675;51.538;6.728;2023-12-04T15:48:25;4.80;99.90
19085;DHT22;9675;51.538;6.728;2023-12-04T15:50:51;4.70;99.90
19085;DHT22;9675;51.538;6.728;2023-12-04T15:53:18;4.70;99.90
19085;DHT22;9675;51.538;6.728;2023-12-04T15:55:45;4.70;99.90
19085;DHT22;9675;51.538;6.728;2023-12-04T15:58:12;4.80;99.90
19085;DHT22;9675;51.538;6.728;2023-12-04T16:00:39;4.70;99.90
19085;DHT22;9675;51.538;6.728;2023-12-04T16:03:07;4.70;99.90
19085;DHT22;9675;51.538;6.728;2023-12-04T16:05:33;4.60;99.90
19085;DHT22;9675;51.538;6.728;2023-12-04T16:08:00;4.60;99.90
19085;DHT22;9675;51.538;6.728;2023-12-04T16:10:27;4.70;99.90
19085;DHT22;9675;51.538;6.728;2023-12-04T16:12:54;4.70;99.90
19085;DHT22;9675;51.538;6.728;2023-12-04T16:15:21;4.70;99.90
19085;DHT22;9675;51.538;6.728;2023-12-04T16:17:50;4.70;99.90
19085;DHT22;9675;51.538;6.728;2023-12-04T16:20:17;4.70;99.90
19085;DHT22;9675;51.538;6.728;2023-12-04T16:22:44;4.70;99.90
19085;DHT22;9675;51.538;6.728;2023-12-04T16:25:11;4.70;99.90
19085;DHT22;9675;51.538;6.728;2023-12-04T16:27:42;4.70;99.90
19085;DHT22;9675;51.538;6.728;2023-12-04T16:30:11;4.70;99.90
19085;DHT22;9675;51.538;6.728;2023-12-04T16:32:39;4.70;99.90
19085;DHT22;9675;51.538;6.728;2023-12-04T16:35:08;4.70;99.90
19085;DHT22;9675;51.538;6.728;2023-12-04T16:37:38;4.70;99.90
19085;DHT22;9675;51.538;6.728;2023-12-04T16:40:07;4.70;99.90
19085;DHT22;9675;51.538;6.728;2023-12-04T16:42:40;4.70;99.90
19085;DHT22;9675;51.538;6.728;2023-12-04T16:45:08;4.60;99.90
19085;DHT22;9675;51.538;6.728;2023-12-04T16:47:35;4.60;99.90
19085;DHT22;9675;51.538;6.728;2023-12-04T16:50:03;4.50;99.90
19085;DHT22;9675;51.538;6.728;2023-12-04T16:52:32;4.50;99.90
19085;DHT22;9675;51.538;6.728;2023-12-04T16:54:59;4.40;99.90
19085;DHT22;9675;51.538;6.728;2023-12-04T16:57:27;4.30;99.90
19085;DHT22;9675;51.538;6.728;2023-12-04T16:59:54;4.20;99.90
19085;DHT22;9675;51.538;6.728;2023-12-04T17:02:21;4.20;99.90
19085;DHT22;9675;51.538;6.728;2023-12-04T17:04:49;4.10;99.90
19085;DHT22;9675;51.538;6.728;2023-12-04T17:07:16;4.10;99.90
19085;DHT22;9675;51.538;6.728;2023-12-04T17:09:45;4.00;99.90
19085;DHT22;9675;51.538;6.728;2023-12-04T17:12:12;4.00;99.90
19085;DHT22;9675;51.538;6.728;2023-12-04T17:14:39;4.00;99.90
19085;DHT22;9675;51.538;6.728;2023-12-04T17:17:06;4.00;99.90
19085;DHT22;9675;51.538;6.728;2023-12-04T17:19:33;4.00;99.90
19085;DHT22;9675;51.538;6.728;2023-12-04T17:22:01;3.90;99.90
19085;DHT22;9675;51.538;6.728;2023-12-04T17:24:28;3.90;99.90
19085;DHT22;9675;51.538;6.728;2023-12-04T17:26:57;3.90;99.90
19085;DHT22;9675;51.538;6.728;2023-12-04T17:29:24;3.80;99.90
19085;DHT22;9675;51.538;6.728;2023-12-04T17:31:53;3.80;99.90
19085;DHT22;9675;51.538;6.728;2023-12-04T17:34:20;3.80;99.90
19085;DHT22;9675;51.538;6.728;2023-12-04T17:36:47;3.80;99.90
19085;DHT22;9675;51.538;6.728;2023-12-04T17:39:14;4.00;99.90
19085;DHT22;9675;51.538;6.728;2023-12-04T17:41:43;4.50;99.90
19085;DHT22;9675;51.538;6.728;2023-12-04T17:44:13;5.00;99.90
19085;DHT22;9675;51.538;6.728;2023-12-04T17:46:40;5.30;99.90
19085;DHT22;9675;51.538;6.728;2023-12-04T17:49:07;5.60;99.90
19085;DHT22;9675;51.538;6.728;2023-12-04T17:51:35;5.80;99.90
19085;DHT22;9675;51.538;6.728;2023-12-04T17:54:02;5.90;99.90
19085;DHT22;9675;51.538;6.728;2023-12-04T17:56:29;6.00;99.90
19085;DHT22;9675;51.538;6.728;2023-12-04T17:58:56;5.90;99.90
19085;DHT22;9675;51.538;6.728;2023-12-04T18:01:26;5.90;99.90
19085;DHT22;9675;51.538;6.728;2023-12-04T18:03:53;6.00;99.90
19085;DHT22;9675;51.538;6.728;2023-12-04T18:06:25;6.10;99.90
19085;DHT22;9675;51.538;6.728;2023-12-04T18:08:52;6.10;99.90
19085;DHT22;9675;51.538;6.728;2023-12-04T18:11:19;6.10;99.90
19085;DHT22;9675;51.538;6.728;2023-12-04T18:13:47;6.00;99.90
19085;DHT22;9675;51.538;6.728;2023-12-04T18:16:14;5.90;99.90
19085;DHT22;9675;51.538;6.728;2023-12-04T18:18:43;5.80;99.90
19085;DHT22;9675;51.538;6.728;2023-12-04T18:21:11;5.70;99.90
19085;DHT22;9675;51.538;6.728;2023-12-04T18:23:38;5.70;99.90
19085;DHT22;9675;51.538;6.728;2023-12-04T18:26:07;5.70;99.90
19085;DHT22;9675;51.538;6.728;2023-12-04T18:28:36;5.80;99.90
19085;DHT22;9675;51.538;6.728;2023-12-04T18:31:04;5.70;99.90
19085;DHT22;9675;51.538;6.728;2023-12-04T18:33:33;5.70;99.90
19085;DHT22;9675;51.538;6.728;2023-12-04T18:36:05;5.60;99.90
19085;DHT22;9675;51.538;6.728;2023-12-04T18:38:38;5.50;99.90
19085;DHT22;9675;51.538;6.728;2023-12-04T18:41:10;5.50;99.90
19085;DHT22;9675;51.538;6.728;2023-12-04T18:43:38;5.60;99.90
19085;DHT22;9675;51.538;6.728;2023-12-04T18:46:06;5.60;99.90
19085;DHT22;9675;51.538;6.728;2023-12-04T18:48:36;5.60;99.90
19085;DHT22;9675;51.538;6.728;2023-12-04T18:51:08;5.50;99.90
19085;DHT22;9675;51.538;6.728;2023-12-04T18:53:36;5.50;99.90
19085;DHT22;9675;51.538;6.728;2023-12-04T18:56:04;5.40;99.90
19085;DHT22;9675;51.538;6.728;2023-12-04T18:58:32;5.50;99.90
19085;DHT22;9675;51.538;6.728;2023-12-04T19:00:59;5.50;99.90
19085;DHT22;9675;51.538;6.728;2023-12-04T19:03:26;5.60;99.90
19085;DHT22;9675;51.538;6.728;2023-12-04T19:05:53;5.60;99.90
19085;DHT22;9675;51.538;6.728;2023-12-04T19:08:22;5.50;99.90
19085;DHT22;9675;51.538;6.728;2023-12-04T19:10:49;5.50;99.90
19085;DHT22;9675;51.538;6.728;2023-12-04T19:13:16;5.50;99.90
19085;DHT22;9675;51.538;6.728;2023-12-04T19:15:43;5.50;99.90
19085;DHT22;9675;51.538;6.728;2023-12-04T19:18:10;5.40;99.90
19085;DHT22;9675;51.538;6.728;2023-12-04T19:20:38;5.30;99.90
19085;DHT22;9675;51.538;6.728;2023-12-04T19:23:05;5.30;99.90
19085;DHT22;9675;51.538;6.728;2023-12-04T19:25:33;5.30;99.90
19085;DHT22;9675;51.538;6.728;2023-12-04T19:28:04;5.40;99.90
19085;DHT22;9675;51.538;6.728;2023-12-04T19:30:31;5.40;99.90
19085;DHT22;9675;51.538;6.728;2023-12-04T19:32:58;5.40;99.90
19085;DHT22;9675;51.538;6.728;2023-12-04T19:35:25;5.40;99.90
19085;DHT22;9675;51.538;6.728;2023-12-04T19:37:53;5.40;99.90
19085;DHT22;9675;51.538;6.728;2023-12-04T19:40:20;5.50;99.90
19085;DHT22;9675;51.538;6.728;2023-12-04T19:42:48;5.50;99.90
19085;DHT22;9675;51.538;6.728;2023-12-04T19:45:16;5.50;99.90
19085;DHT22;9675;51.538;6.728;2023-12-04T19:47:43;5.60;99.90
19085;DHT22;9675;51.538;6.728;2023-12-04T19:50:10;5.60;99.90
19085;DHT22;9675;51.538;6.728;2023-12-04T19:52:38;5.50;99.90
19085;DHT22;9675;51.538;6.728;2023-12-04T19:55:05;5.50;99.90
19085;DHT22;9675;51.538;6.728;2023-12-04T19:57:32;5.50;99.90
19085;DHT22;9675;51.538;6.728;2023-12-04T20:00:02;5.50;99.90
19085;DHT22;9675;51.538;6.728;2023-12-04T20:02:31;5.50;99.90
19085;DHT22;9675;51.538;6.728;2023-12-04T20:05:01;5.50;99.90
19085;DHT22;9675;51.538;6.728;2023-12-04T20:07:29;5.50;99.90
19085;DHT22;9675;51.538;6.728;2023-12-04T20:09:57;5.50;99.90
19085;DHT22;9675;51.538;6.728;2023-12-04T20:12:24;5.50;99.90
19085;DHT22;9675;51.538;6.728;2023-12-04T20:14:52;5.50;99.90
19085;DHT22;9675;51.538;6.728;2023-12-04T20:17:20;5.50;99.90
19085;DHT22;9675;51.538;6.728;2023-12-04T20:19:49;5.50;99.90
19085;DHT22;9675;51.538;6.728;2023-12-04T20:22:16;5.50;99.90
19085;DHT22;9675;51.538;6.728;2023-12-04T20:24:43;5.50;99.90
19085;DHT22;9675;51.538;6.728;2023-12-04T20:27:13;5.50;99.90
19085;DHT22;9675;51.538;6.728;2023-12-04T20:29:40;5.40;99.90
19085;DHT22;9675;51.538;6.728;2023-12-04T20:32:08;5.40;99.90
19085;DHT22;9675;51.538;6.728;2023-12-04T20:34:37;5.40;99.90
19085;DHT22;9675;51.538;6.728;2023-12-04T20:37:05;5.30;99.90
19085;DHT22;9675;51.538;6.728;2023-12-04T20:39:32;5.30;99.90
19085;DHT22;9675;51.538;6.728;2023-12-04T20:42:01;5.30;99.90